sensor_id;sensor_type;location;lat;lon;timestamp;P1;durP1;ratioP1;P2;durP2;ratioP2
27802;SDS011;15182;48.174;11.562;2023-02-28T00:01:30;6.40;;;6.13;;
27802;SDS011;15182;48.174;11.562;2023-02-28T00:04:01;6.63;;;6.33;;
27802;SDS011;15182;48.174;11.562;2023-02-28T00:06:35;6.43;;;5.90;;
27802;SDS011;15182;48.174;11.562;2023-02-28T00:09:07;6.60;;;6.20;;
27802;SDS011;15182;48.174;11.562;2023-02-28T00:11:46;6.10;;;5.60;;
27802;SDS011;15182;48.174;11.562;2023-02-28T00:14:18;6.90;;;6.00;;
27802;SDS011;15182;48.174;11.562;2023-02-28T00:16:49;6.20;;;5.80;;
27802;SDS011;15182;48.174;11.562;2023-02-28T00:19:20;7.00;;;6.63;;
27802;SDS011;15182;48.174;11.562;2023-02-28T00:21:51;6.70;;;6.40;;
27802;SDS011;15182;48.174;11.562;2023-02-28T00:24:23;6.17;;;5.97;;
27802;SDS011;15182;48.174;11.562;2023-02-28T00:26:55;6.93;;;6.40;;
27802;SDS011;15182;48.174;11.562;2023-02-28T00:29:27;6.57;;;6.27;;
27802;SDS011;15182;48.174;11.562;2023-02-28T00:31:58;6.77;;;6.47;;
27802;SDS011;15182;48.174;11.562;2023-02-28T00:34:30;6.77;;;6.47;;
27802;SDS011;15182;48.174;11.562;2023-02-28T00:37:03;6.57;;;6.17;;
27802;SDS011;15182;48.174;11.562;2023-02-28T00:39:37;6.73;;;6.53;;
27802;SDS011;15182;48.174;11.562;2023-02-28T00:42:10;7.00;;;6.67;;
27802;SDS011;15182;48.174;11.562;2023-02-28T00:44:42;6.63;;;6.27;;
27802;SDS011;15182;48.174;11.562;2023-02-28T00:47:13;6.53;;;6.23;;
27802;SDS011;15182;48.174;11.562;2023-02-28T00:49:45;6.63;;;6.10;;
27802;SDS011;15182;48.174;11.562;2023-02-28T00:52:16;7.40;;;7.00;;
27802;SDS011;15182;48.174;11.562;2023-02-28T00:54:48;6.83;;;6.53;;
27802;SDS011;15182;48.174;11.562;2023-02-28T00:57:20;6.83;;;6.63;;
27802;SDS011;15182;48.174;11.562;2023-02-28T00:59:52;6.97;;;6.63;;
27802;SDS011;15182;48.174;11.562;2023-02-28T01:02:23;6.73;;;6.43;;
27802;SDS011;15182;48.174;11.562;2023-02-28T01:04:54;7.00;;;6.60;;
27802;SDS011;15182;48.174;11.562;2023-02-28T01:07:29;7.10;;;6.70;;
27802;SDS011;15182;48.174;11.562;2023-02-28T01:10:00;7.27;;;6.90;;
27802;SDS011;15182;48.174;11.562;2023-02-28T01:12:34;7.23;;;6.73;;
27802;SDS011;15182;48.174;11.562;2023-02-28T01:15:05;6.90;;;6.50;;
27802;SDS011;15182;48.174;11.562;2023-02-28T01:17:39;6.67;;;6.37;;
27802;SDS011;15182;48.174;11.562;2023-02-28T01:20:10;6.30;;;6.00;;
27802;SDS011;15182;48.174;11.562;2023-02-28T01:22:43;6.33;;;6.03;;
27802;SDS011;15182;48.174;11.562;2023-02-28T01:25:14;6.87;;;6.47;;
27802;SDS011;15182;48.174;11.562;2023-02-28T01:27:47;6.70;;;6.07;;
27802;SDS011;15182;48.174;11.562;2023-02-28T01:30:19;6.80;;;6.50;;
27802;SDS011;15182;48.174;11.562;2023-02-28T01:32:50;7.10;;;6.47;;
27802;SDS011;15182;48.174;11.562;2023-02-28T01:35:21;7.23;;;6.63;;
27802;SDS011;15182;48.174;11.562;2023-02-28T01:37:54;7.40;;;7.10;;
27802;SDS011;15182;48.174;11.562;2023-02-28T01:40:25;7.37;;;6.97;;
27802;SDS011;15182;48.174;11.562;2023-02-28T01:42:58;6.67;;;6.37;;
27802;SDS011;15182;48.174;11.562;2023-02-28T01:45:29;6.17;;;5.87;;
27802;SDS011;15182;48.174;11.562;2023-02-28T01:48:03;7.03;;;6.73;;
27802;SDS011;15182;48.174;11.562;2023-02-28T01:50:39;7.20;;;6.70;;
27802;SDS011;15182;48.174;11.562;2023-02-28T01:53:14;7.33;;;6.87;;
27802;SDS011;15182;48.174;11.562;2023-02-28T01:55:51;6.47;;;6.13;;
27802;SDS011;15182;48.174;11.562;2023-02-28T01:58:25;6.73;;;6.33;;
27802;SDS011;15182;48.174;11.562;2023-02-28T02:00:57;6.73;;;6.43;;
27802;SDS011;15182;48.174;11.562;2023-02-28T02:03:29;6.87;;;6.47;;
27802;SDS011;15182;48.174;11.562;2023-02-28T02:06:01;6.93;;;6.63;;
27802;SDS011;15182;48.174;11.562;2023-02-28T02:08:34;7.20;;;6.83;;
27802;SDS011;15182;48.174;11.562;2023-02-28T02:11:07;7.10;;;6.50;;
27802;SDS011;15182;48.174;11.562;2023-02-28T02:13:45;7.33;;;6.93;;
27802;SDS011;15182;48.174;11.562;2023-02-28T02:16:41;7.00;;;6.60;;
27802;SDS011;15182;48.174;11.562;2023-02-28T02:19:30;6.90;;;6.57;;
27802;SDS011;15182;48.174;11.562;2023-02-28T02:22:44;6.83;;;6.47;;
27802;SDS011;15182;48.174;11.562;2023-02-28T02:25:58;7.63;;;7.13;;
27802;SDS011;15182;48.174;11.562;2023-02-28T02:28:58;7.40;;;7.00;;
27802;SDS011;15182;48.174;11.562;2023-02-28T02:35:16;7.47;;;7.00;;
27802;SDS011;15182;48.174;11.562;2023-02-28T02:37:55;7.90;;;7.10;;
27802;SDS011;15182;48.174;11.562;2023-02-28T02:40:37;6.47;;;6.17;;
27802;SDS011;15182;48.174;11.562;2023-02-28T02:43:15;6.50;;;6.10;;
27802;SDS011;15182;48.174;11.562;2023-02-28T02:45:55;6.80;;;6.60;;
27802;SDS011;15182;48.174;11.562;2023-02-28T02:48:29;6.73;;;6.23;;
27802;SDS011;15182;48.174;11.562;2023-02-28T02:51:06;7.57;;;7.00;;
27802;SDS011;15182;48.174;11.562;2023-02-28T02:53:42;7.20;;;6.70;;
27802;SDS011;15182;48.174;11.562;2023-02-28T02:56:19;6.47;;;6.17;;
27802;SDS011;15182;48.174;11.562;2023-02-28T02:58:59;7.23;;;6.83;;
27802;SDS011;15182;48.174;11.562;2023-02-28T03:01:35;7.40;;;6.90;;
27802;SDS011;15182;48.174;11.562;2023-02-28T03:04:10;7.57;;;7.17;;
27802;SDS011;15182;48.174;11.562;2023-02-28T03:06:50;7.27;;;6.97;;
27802;SDS011;15182;48.174;11.562;2023-02-28T03:09:22;8.23;;;7.67;;
27802;SDS011;15182;48.174;11.562;2023-02-28T03:11:56;7.33;;;6.90;;
27802;SDS011;15182;48.174;11.562;2023-02-28T03:14:32;7.60;;;7.00;;
27802;SDS011;15182;48.174;11.562;2023-02-28T03:17:16;7.40;;;7.00;;
27802;SDS011;15182;48.174;11.562;2023-02-28T03:20:23;7.30;;;7.00;;
27802;SDS011;15182;48.174;11.562;2023-02-28T03:23:13;7.90;;;6.97;;
27802;SDS011;15182;48.174;11.562;2023-02-28T03:25:55;7.87;;;7.37;;
27802;SDS011;15182;48.174;11.562;2023-02-28T03:28:31;8.30;;;7.43;;
27802;SDS011;15182;48.174;11.562;2023-02-28T03:31:13;8.20;;;7.57;;
27802;SDS011;15182;48.174;11.562;2023-02-28T03:33:49;7.87;;;7.17;;
27802;SDS011;15182;48.174;11.562;2023-02-28T03:36:26;7.23;;;6.83;;
27802;SDS011;15182;48.174;11.562;2023-02-28T03:39:11;7.43;;;7.03;;
27802;SDS011;15182;48.174;11.562;2023-02-28T03:41:47;8.07;;;7.57;;
27802;SDS011;15182;48.174;11.562;2023-02-28T03:44:29;8.37;;;7.87;;
27802;SDS011;15182;48.174;11.562;2023-02-28T03:47:08;8.10;;;7.60;;
27802;SDS011;15182;48.174;11.562;2023-02-28T03:49:45;8.27;;;7.80;;
27802;SDS011;15182;48.174;11.562;2023-02-28T03:52:20;8.30;;;7.67;;
27802;SDS011;15182;48.174;11.562;2023-02-28T03:54:59;8.67;;;7.97;;
27802;SDS011;15182;48.174;11.562;2023-02-28T03:57:37;8.63;;;7.93;;
27802;SDS011;15182;48.174;11.562;2023-02-28T04:00:16;9.03;;;8.13;;
27802;SDS011;15182;48.174;11.562;2023-02-28T04:02:54;7.43;;;7.03;;
27802;SDS011;15182;48.174;11.562;2023-02-28T04:05:25;7.80;;;7.47;;
27802;SDS011;15182;48.174;11.562;2023-02-28T04:08:05;9.30;;;8.57;;
27802;SDS011;15182;48.174;11.562;2023-02-28T04:10:38;7.90;;;7.50;;
27802;SDS011;15182;48.174;11.562;2023-02-28T04:13:12;8.63;;;8.13;;
27802;SDS011;15182;48.174;11.562;2023-02-28T04:15:43;8.77;;;8.03;;
27802;SDS011;15182;48.174;11.562;2023-02-28T04:18:16;9.67;;;9.07;;
27802;SDS011;15182;48.174;11.562;2023-02-28T04:20:48;9.43;;;8.70;;
27802;SDS011;15182;48.174;11.562;2023-02-28T04:23:20;8.20;;;7.70;;
27802;SDS011;15182;48.174;11.562;2023-02-28T04:25:54;9.83;;;9.03;;
27802;SDS011;15182;48.174;11.562;2023-02-28T04:28:25;9.97;;;7.97;;
27802;SDS011;15182;48.174;11.562;2023-02-28T04:30:56;9.20;;;8.10;;
27802;SDS011;15182;48.174;11.562;2023-02-28T04:33:31;8.47;;;7.97;;
27802;SDS011;15182;48.174;11.562;2023-02-28T04:36:03;10.73;;;8.40;;
27802;SDS011;15182;48.174;11.562;2023-02-28T04:38:36;8.90;;;7.97;;
27802;SDS011;15182;48.174;11.562;2023-02-28T04:41:09;8.80;;;8.27;;
27802;SDS011;15182;48.174;11.562;2023-02-28T04:43:42;9.43;;;8.53;;
27802;SDS011;15182;48.174;11.562;2023-02-28T04:46:15;12.40;;;7.87;;
27802;SDS011;15182;48.174;11.562;2023-02-28T04:48:48;9.07;;;8.10;;
27802;SDS011;15182;48.174;11.562;2023-02-28T04:51:20;10.37;;;9.30;;
27802;SDS011;15182;48.174;11.562;2023-02-28T04:53:51;8.87;;;8.10;;
27802;SDS011;15182;48.174;11.562;2023-02-28T04:56:26;9.27;;;8.57;;
27802;SDS011;15182;48.174;11.562;2023-02-28T04:58:57;9.07;;;8.33;;
27802;SDS011;15182;48.174;11.562;2023-02-28T05:01:30;9.73;;;8.80;;
27802;SDS011;15182;48.174;11.562;2023-02-28T05:04:03;8.90;;;8.27;;
27802;SDS011;15182;48.174;11.562;2023-02-28T05:06:35;9.60;;;8.90;;
27802;SDS011;15182;48.174;11.562;2023-02-28T05:09:08;9.50;;;8.50;;
27802;SDS011;15182;48.174;11.562;2023-02-28T05:11:41;9.37;;;8.57;;
27802;SDS011;15182;48.174;11.562;2023-02-28T05:14:14;9.47;;;8.53;;
27802;SDS011;15182;48.174;11.562;2023-02-28T05:16:45;11.03;;;9.83;;
27802;SDS011;15182;48.174;11.562;2023-02-28T05:19:18;10.07;;;9.20;;
27802;SDS011;15182;48.174;11.562;2023-02-28T05:21:50;10.27;;;9.23;;
27802;SDS011;15182;48.174;11.562;2023-02-28T05:24:25;10.00;;;9.10;;
27802;SDS011;15182;48.174;11.562;2023-02-28T05:26:57;10.20;;;9.20;;
27802;SDS011;15182;48.174;11.562;2023-02-28T05:29:29;9.67;;;8.87;;
27802;SDS011;15182;48.174;11.562;2023-02-28T05:32:08;9.63;;;8.83;;
27802;SDS011;15182;48.174;11.562;2023-02-28T05:34:39;10.53;;;9.43;;
27802;SDS011;15182;48.174;11.562;2023-02-28T05:37:13;11.07;;;9.97;;
27802;SDS011;15182;48.174;11.562;2023-02-28T05:39:44;10.60;;;9.60;;
27802;SDS011;15182;48.174;11.562;2023-02-28T05:42:16;11.17;;;10.13;;
27802;SDS011;15182;48.174;11.562;2023-02-28T05:44:48;9.80;;;8.90;;
27802;SDS011;15182;48.174;11.562;2023-02-28T05:47:21;11.00;;;10.07;;
27802;SDS011;15182;48.174;11.562;2023-02-28T05:49:52;11.20;;;10.27;;
27802;SDS011;15182;48.174;11.562;2023-02-28T05:52:25;12.43;;;10.23;;
27802;SDS011;15182;48.174;11.562;2023-02-28T05:54:56;9.77;;;8.83;;
27802;SDS011;15182;48.174;11.562;2023-02-28T05:57:29;11.20;;;9.47;;
27802;SDS011;15182;48.174;11.562;2023-02-28T06:00:00;10.70;;;9.67;;
27802;SDS011;15182;48.174;11.562;2023-02-28T06:02:38;10.83;;;9.67;;
27802;SDS011;15182;48.174;11.562;2023-02-28T06:05:11;10.67;;;9.80;;
27802;SDS011;15182;48.174;11.562;2023-02-28T06:07:46;11.33;;;10.00;;
27802;SDS011;15182;48.174;11.562;2023-02-28T06:10:19;13.50;;;10.37;;
27802;SDS011;15182;48.174;11.562;2023-02-28T06:12:51;12.73;;;10.40;;
27802;SDS011;15182;48.174;11.562;2023-02-28T06:15:25;13.37;;;11.87;;
27802;SDS011;15182;48.174;11.562;2023-02-28T06:17:56;14.30;;;10.73;;
27802;SDS011;15182;48.174;11.562;2023-02-28T06:20:30;12.00;;;10.80;;
27802;SDS011;15182;48.174;11.562;2023-02-28T06:23:02;12.30;;;11.00;;
27802;SDS011;15182;48.174;11.562;2023-02-28T06:25:33;10.63;;;9.73;;
27802;SDS011;15182;48.174;11.562;2023-02-28T06:28:06;13.30;;;10.47;;
27802;SDS011;15182;48.174;11.562;2023-02-28T06:30:37;11.80;;;10.10;;
27802;SDS011;15182;48.174;11.562;2023-02-28T06:33:09;11.87;;;10.67;;
27802;SDS011;15182;48.174;11.562;2023-02-28T06:35:42;13.67;;;12.30;;
27802;SDS011;15182;48.174;11.562;2023-02-28T06:38:16;15.17;;;11.70;;
27802;SDS011;15182;48.174;11.562;2023-02-28T06:40:52;11.80;;;10.60;;
27802;SDS011;15182;48.174;11.562;2023-02-28T06:43:27;12.33;;;11.17;;
27802;SDS011;15182;48.174;11.562;2023-02-28T06:46:02;13.47;;;11.13;;
27802;SDS011;15182;48.174;11.562;2023-02-28T06:48:39;13.73;;;11.33;;
27802;SDS011;15182;48.174;11.562;2023-02-28T06:51:12;15.17;;;11.47;;
27802;SDS011;15182;48.174;11.562;2023-02-28T06:53:47;16.17;;;11.43;;
27802;SDS011;15182;48.174;11.562;2023-02-28T06:56:19;17.13;;;11.43;;
27802;SDS011;15182;48.174;11.562;2023-02-28T06:58:52;15.37;;;11.97;;
27802;SDS011;15182;48.174;11.562;2023-02-28T07:01:23;13.20;;;11.37;;
27802;SDS011;15182;48.174;11.562;2023-02-28T07:03:55;13.70;;;11.50;;
27802;SDS011;15182;48.174;11.562;2023-02-28T07:06:27;14.00;;;11.00;;
27802;SDS011;15182;48.174;11.562;2023-02-28T07:08:58;21.17;;;14.47;;
27802;SDS011;15182;48.174;11.562;2023-02-28T07:11:30;19.43;;;13.13;;
27802;SDS011;15182;48.174;11.562;2023-02-28T07:14:03;14.37;;;12.13;;
27802;SDS011;15182;48.174;11.562;2023-02-28T07:16:35;14.87;;;12.03;;
27802;SDS011;15182;48.174;11.562;2023-02-28T07:19:06;18.37;;;12.13;;
27802;SDS011;15182;48.174;11.562;2023-02-28T07:21:37;13.73;;;11.83;;
27802;SDS011;15182;48.174;11.562;2023-02-28T07:24:08;20.80;;;12.03;;
27802;SDS011;15182;48.174;11.562;2023-02-28T07:26:41;15.57;;;11.33;;
27802;SDS011;15182;48.174;11.562;2023-02-28T07:29:14;12.50;;;11.30;;
27802;SDS011;15182;48.174;11.562;2023-02-28T07:31:45;16.53;;;11.70;;
27802;SDS011;15182;48.174;11.562;2023-02-28T07:34:18;13.80;;;11.70;;
27802;SDS011;15182;48.174;11.562;2023-02-28T07:36:52;15.07;;;11.20;;
27802;SDS011;15182;48.174;11.562;2023-02-28T07:39:23;12.90;;;11.60;;
27802;SDS011;15182;48.174;11.562;2023-02-28T07:41:55;18.73;;;12.30;;
27802;SDS011;15182;48.174;11.562;2023-02-28T07:44:28;14.73;;;11.40;;
27802;SDS011;15182;48.174;11.562;2023-02-28T07:47:00;16.80;;;12.43;;
27802;SDS011;15182;48.174;11.562;2023-02-28T07:49:31;15.33;;;12.27;;
27802;SDS011;15182;48.174;11.562;2023-02-28T07:52:05;14.63;;;12.47;;
27802;SDS011;15182;48.174;11.562;2023-02-28T07:54:36;16.20;;;12.27;;
27802;SDS011;15182;48.174;11.562;2023-02-28T07:57:08;16.73;;;12.23;;
27802;SDS011;15182;48.174;11.562;2023-02-28T07:59:40;14.30;;;11.87;;
27802;SDS011;15182;48.174;11.562;2023-02-28T08:02:12;14.43;;;12.10;;
27802;SDS011;15182;48.174;11.562;2023-02-28T08:04:45;16.77;;;12.10;;
27802;SDS011;15182;48.174;11.562;2023-02-28T08:07:17;15.70;;;12.07;;
27802;SDS011;15182;48.174;11.562;2023-02-28T08:09:48;14.00;;;12.27;;
27802;SDS011;15182;48.174;11.562;2023-02-28T08:12:19;15.60;;;12.23;;
27802;SDS011;15182;48.174;11.562;2023-02-28T08:14:52;14.47;;;12.93;;
27802;SDS011;15182;48.174;11.562;2023-02-28T08:17:23;17.07;;;12.07;;
27802;SDS011;15182;48.174;11.562;2023-02-28T08:19:54;18.60;;;12.80;;
27802;SDS011;15182;48.174;11.562;2023-02-28T08:22:25;14.57;;;12.97;;
27802;SDS011;15182;48.174;11.562;2023-02-28T08:24:57;14.30;;;12.80;;
27802;SDS011;15182;48.174;11.562;2023-02-28T08:27:28;16.67;;;13.37;;
27802;SDS011;15182;48.174;11.562;2023-02-28T08:30:00;13.43;;;11.97;;
27802;SDS011;15182;48.174;11.562;2023-02-28T08:32:33;20.40;;;12.90;;
27802;SDS011;15182;48.174;11.562;2023-02-28T08:35:04;14.47;;;12.93;;
27802;SDS011;15182;48.174;11.562;2023-02-28T08:37:38;18.67;;;12.97;;
27802;SDS011;15182;48.174;11.562;2023-02-28T08:40:09;16.73;;;12.77;;
27802;SDS011;15182;48.174;11.562;2023-02-28T08:42:43;17.50;;;12.53;;
27802;SDS011;15182;48.174;11.562;2023-02-28T08:45:17;14.50;;;12.53;;
27802;SDS011;15182;48.174;11.562;2023-02-28T08:47:48;27.97;;;17.00;;
27802;SDS011;15182;48.174;11.562;2023-02-28T08:50:20;26.77;;;16.83;;
27802;SDS011;15182;48.174;11.562;2023-02-28T08:52:51;26.90;;;17.17;;
27802;SDS011;15182;48.174;11.562;2023-02-28T08:55:22;21.63;;;14.80;;
27802;SDS011;15182;48.174;11.562;2023-02-28T08:57:53;18.83;;;13.87;;
27802;SDS011;15182;48.174;11.562;2023-02-28T09:00:26;19.43;;;13.37;;
27802;SDS011;15182;48.174;11.562;2023-02-28T09:02:58;16.47;;;12.80;;
27802;SDS011;15182;48.174;11.562;2023-02-28T09:05:29;17.03;;;13.00;;
27802;SDS011;15182;48.174;11.562;2023-02-28T09:08:00;13.70;;;12.10;;
27802;SDS011;15182;48.174;11.562;2023-02-28T09:10:32;16.50;;;12.63;;
27802;SDS011;15182;48.174;11.562;2023-02-28T09:13:03;14.97;;;12.07;;
27802;SDS011;15182;48.174;11.562;2023-02-28T09:15:37;34.60;;;11.97;;
27802;SDS011;15182;48.174;11.562;2023-02-28T09:18:09;20.70;;;13.10;;
27802;SDS011;15182;48.174;11.562;2023-02-28T09:20:41;17.10;;;12.10;;
27802;SDS011;15182;48.174;11.562;2023-02-28T09:23:13;18.33;;;12.90;;
27802;SDS011;15182;48.174;11.562;2023-02-28T09:25:45;18.57;;;13.00;;
27802;SDS011;15182;48.174;11.562;2023-02-28T09:28:18;15.23;;;11.93;;
27802;SDS011;15182;48.174;11.562;2023-02-28T09:30:52;21.03;;;13.03;;
27802;SDS011;15182;48.174;11.562;2023-02-28T09:33:24;17.20;;;12.97;;
27802;SDS011;15182;48.174;11.562;2023-02-28T09:36:05;14.00;;;11.83;;
27802;SDS011;15182;48.174;11.562;2023-02-28T09:38:37;20.57;;;12.73;;
27802;SDS011;15182;48.174;11.562;2023-02-28T09:41:13;15.10;;;12.60;;
27802;SDS011;15182;48.174;11.562;2023-02-28T09:43:48;18.43;;;13.10;;
27802;SDS011;15182;48.174;11.562;2023-02-28T09:46:27;17.23;;;13.37;;
27802;SDS011;15182;48.174;11.562;2023-02-28T09:49:02;17.17;;;12.43;;
27802;SDS011;15182;48.174;11.562;2023-02-28T09:51:40;15.47;;;12.87;;
27802;SDS011;15182;48.174;11.562;2023-02-28T09:54:19;16.33;;;12.57;;
27802;SDS011;15182;48.174;11.562;2023-02-28T09:56:55;18.53;;;13.17;;
27802;SDS011;15182;48.174;11.562;2023-02-28T09:59:38;20.07;;;12.83;;
27802;SDS011;15182;48.174;11.562;2023-02-28T10:02:19;19.37;;;12.83;;
27802;SDS011;15182;48.174;11.562;2023-02-28T10:05:06;16.27;;;13.00;;
27802;SDS011;15182;48.174;11.562;2023-02-28T10:07:49;15.73;;;12.60;;
27802;SDS011;15182;48.174;11.562;2023-02-28T10:10:33;17.03;;;12.80;;
27802;SDS011;15182;48.174;11.562;2023-02-28T10:13:12;15.07;;;12.80;;
27802;SDS011;15182;48.174;11.562;2023-02-28T10:15:47;16.37;;;13.57;;
27802;SDS011;15182;48.174;11.562;2023-02-28T10:18:25;16.50;;;12.77;;
27802;SDS011;15182;48.174;11.562;2023-02-28T10:21:01;19.50;;;13.20;;
27802;SDS011;15182;48.174;11.562;2023-02-28T10:23:35;18.87;;;13.17;;
27802;SDS011;15182;48.174;11.562;2023-02-28T10:26:11;17.73;;;13.53;;
27802;SDS011;15182;48.174;11.562;2023-02-28T10:28:46;16.53;;;13.77;;
27802;SDS011;15182;48.174;11.562;2023-02-28T10:31:19;15.47;;;12.97;;
27802;SDS011;15182;48.174;11.562;2023-02-28T10:33:52;19.87;;;14.20;;
27802;SDS011;15182;48.174;11.562;2023-02-28T10:36:23;16.77;;;12.97;;
27802;SDS011;15182;48.174;11.562;2023-02-28T10:38:55;16.07;;;13.40;;
27802;SDS011;15182;48.174;11.562;2023-02-28T10:41:27;16.97;;;13.50;;
27802;SDS011;15182;48.174;11.562;2023-02-28T10:44:16;19.33;;;12.63;;
27802;SDS011;15182;48.174;11.562;2023-02-28T10:46:49;15.57;;;12.07;;
27802;SDS011;15182;48.174;11.562;2023-02-28T10:49:24;18.73;;;13.70;;
27802;SDS011;15182;48.174;11.562;2023-02-28T10:51:57;19.87;;;13.43;;
27802;SDS011;15182;48.174;11.562;2023-02-28T10:54:31;18.10;;;12.53;;
27802;SDS011;15182;48.174;11.562;2023-02-28T10:57:05;17.40;;;13.77;;
27802;SDS011;15182;48.174;11.562;2023-02-28T10:59:46;17.43;;;12.93;;
27802;SDS011;15182;48.174;11.562;2023-02-28T11:02:34;18.60;;;13.37;;
27802;SDS011;15182;48.174;11.562;2023-02-28T11:05:26;15.30;;;12.87;;
27802;SDS011;15182;48.174;11.562;2023-02-28T11:08:02;17.37;;;12.60;;
27802;SDS011;15182;48.174;11.562;2023-02-28T11:10:38;18.07;;;12.97;;
27802;SDS011;15182;48.174;11.562;2023-02-28T11:13:16;16.73;;;13.00;;
27802;SDS011;15182;48.174;11.562;2023-02-28T11:15:52;18.13;;;13.03;;
27802;SDS011;15182;48.174;11.562;2023-02-28T11:18:27;16.97;;;12.27;;
27802;SDS011;15182;48.174;11.562;2023-02-28T11:21:04;17.43;;;13.47;;
27802;SDS011;15182;48.174;11.562;2023-02-28T11:23:42;15.77;;;12.30;;
27802;SDS011;15182;48.174;11.562;2023-02-28T11:26:14;20.70;;;13.03;;
27802;SDS011;15182;48.174;11.562;2023-02-28T11:29:05;17.23;;;12.07;;
27802;SDS011;15182;48.174;11.562;2023-02-28T11:31:43;18.53;;;12.90;;
27802;SDS011;15182;48.174;11.562;2023-02-28T11:34:30;17.00;;;12.07;;
27802;SDS011;15182;48.174;11.562;2023-02-28T11:37:05;16.37;;;12.30;;
27802;SDS011;15182;48.174;11.562;2023-02-28T11:39:42;15.63;;;11.93;;
27802;SDS011;15182;48.174;11.562;2023-02-28T11:42:27;15.93;;;12.97;;
27802;SDS011;15182;48.174;11.562;2023-02-28T11:45:27;19.27;;;13.80;;
27802;SDS011;15182;48.174;11.562;2023-02-28T11:48:18;15.43;;;12.63;;
27802;SDS011;15182;48.174;11.562;2023-02-28T11:50:59;14.17;;;11.70;;
27802;SDS011;15182;48.174;11.562;2023-02-28T11:53:43;16.10;;;11.67;;
27802;SDS011;15182;48.174;11.562;2023-02-28T11:56:25;18.63;;;12.37;;
27802;SDS011;15182;48.174;11.562;2023-02-28T11:59:08;14.70;;;12.10;;
27802;SDS011;15182;48.174;11.562;2023-02-28T12:05:09;15.07;;;11.30;;
27802;SDS011;15182;48.174;11.562;2023-02-28T12:07:55;20.50;;;11.93;;
27802;SDS011;15182;48.174;11.562;2023-02-28T12:10:39;15.00;;;11.93;;
27802;SDS011;15182;48.174;11.562;2023-02-28T12:13:25;14.50;;;11.20;;
27802;SDS011;15182;48.174;11.562;2023-02-28T12:16:10;13.50;;;11.20;;
27802;SDS011;15182;48.174;11.562;2023-02-28T12:19:13;13.73;;;10.97;;
27802;SDS011;15182;48.174;11.562;2023-02-28T12:21:56;12.43;;;10.97;;
27802;SDS011;15182;48.174;11.562;2023-02-28T12:24:55;14.00;;;11.07;;
27802;SDS011;15182;48.174;11.562;2023-02-28T12:27:50;13.40;;;11.67;;
27802;SDS011;15182;48.174;11.562;2023-02-28T12:30:24;22.30;;;12.40;;
27802;SDS011;15182;48.174;11.562;2023-02-28T12:33:08;13.63;;;10.83;;
27802;SDS011;15182;48.174;11.562;2023-02-28T12:35:43;16.97;;;10.50;;
27802;SDS011;15182;48.174;11.562;2023-02-28T12:38:22;16.20;;;10.83;;
27802;SDS011;15182;48.174;11.562;2023-02-28T12:40:57;13.10;;;10.53;;
27802;SDS011;15182;48.174;11.562;2023-02-28T12:43:36;16.93;;;10.87;;
27802;SDS011;15182;48.174;11.562;2023-02-28T12:46:12;11.27;;;10.13;;
27802;SDS011;15182;48.174;11.562;2023-02-28T12:48:50;13.07;;;10.13;;
27802;SDS011;15182;48.174;11.562;2023-02-28T12:51:24;11.30;;;9.53;;
27802;SDS011;15182;48.174;11.562;2023-02-28T12:53:58;12.93;;;10.53;;
27802;SDS011;15182;48.174;11.562;2023-02-28T12:56:39;15.27;;;10.37;;
27802;SDS011;15182;48.174;11.562;2023-02-28T12:59:16;11.83;;;9.67;;
27802;SDS011;15182;48.174;11.562;2023-02-28T13:02:09;11.27;;;10.17;;
27802;SDS011;15182;48.174;11.562;2023-02-28T13:05:12;11.40;;;9.83;;
27802;SDS011;15182;48.174;11.562;2023-02-28T13:08:03;12.07;;;10.13;;
27802;SDS011;15182;48.174;11.562;2023-02-28T13:10:54;12.50;;;9.37;;
27802;SDS011;15182;48.174;11.562;2023-02-28T13:13:26;11.77;;;10.37;;
27802;SDS011;15182;48.174;11.562;2023-02-28T13:16:02;10.77;;;9.67;;
27802;SDS011;15182;48.174;11.562;2023-02-28T13:18:36;11.00;;;9.80;;
27802;SDS011;15182;48.174;11.562;2023-02-28T13:21:21;12.30;;;9.93;;
27802;SDS011;15182;48.174;11.562;2023-02-28T13:23:57;12.50;;;10.03;;
27802;SDS011;15182;48.174;11.562;2023-02-28T13:29:38;11.50;;;9.93;;
27802;SDS011;15182;48.174;11.562;2023-02-28T13:32:31;11.07;;;10.03;;
27802;SDS011;15182;48.174;11.562;2023-02-28T13:38:17;11.30;;;10.13;;
27802;SDS011;15182;48.174;11.562;2023-02-28T13:44:14;11.50;;;10.30;;
27802;SDS011;15182;48.174;11.562;2023-02-28T13:49:56;10.90;;;9.80;;
27802;SDS011;15182;48.174;11.562;2023-02-28T13:52:48;11.47;;;9.90;;
27802;SDS011;15182;48.174;11.562;2023-02-28T13:55:31;13.97;;;11.37;;
27802;SDS011;15182;48.174;11.562;2023-02-28T13:58:10;13.10;;;10.27;;
27802;SDS011;15182;48.174;11.562;2023-02-28T14:01:03;11.30;;;9.97;;
27802;SDS011;15182;48.174;11.562;2023-02-28T14:03:53;12.77;;;10.90;;
27802;SDS011;15182;48.174;11.562;2023-02-28T14:06:47;11.40;;;10.17;;
27802;SDS011;15182;48.174;11.562;2023-02-28T14:09:21;13.47;;;10.60;;
27802;SDS011;15182;48.174;11.562;2023-02-28T14:11:58;12.40;;;10.17;;
27802;SDS011;15182;48.174;11.562;2023-02-28T14:15:47;14.73;;;11.07;;
27802;SDS011;15182;48.174;11.562;2023-02-28T14:18:27;11.43;;;10.20;;
27802;SDS011;15182;48.174;11.562;2023-02-28T14:21:11;15.50;;;10.63;;
27802;SDS011;15182;48.174;11.562;2023-02-28T14:24:03;12.37;;;11.07;;
27802;SDS011;15182;48.174;11.562;2023-02-28T14:27:01;15.00;;;10.70;;
27802;SDS011;15182;48.174;11.562;2023-02-28T14:33:18;13.63;;;10.63;;
27802;SDS011;15182;48.174;11.562;2023-02-28T14:35:57;12.67;;;10.57;;
27802;SDS011;15182;48.174;11.562;2023-02-28T14:38:35;13.40;;;10.10;;
27802;SDS011;15182;48.174;11.562;2023-02-28T14:41:14;11.07;;;9.80;;
27802;SDS011;15182;48.174;11.562;2023-02-28T14:43:47;12.77;;;10.93;;
27802;SDS011;15182;48.174;11.562;2023-02-28T14:46:25;15.20;;;9.93;;
27802;SDS011;15182;48.174;11.562;2023-02-28T14:49:02;12.50;;;10.23;;
27802;SDS011;15182;48.174;11.562;2023-02-28T14:51:38;11.57;;;10.30;;
27802;SDS011;15182;48.174;11.562;2023-02-28T14:54:13;10.53;;;9.57;;
27802;SDS011;15182;48.174;11.562;2023-02-28T14:56:49;12.80;;;10.03;;
27802;SDS011;15182;48.174;11.562;2023-02-28T14:59:25;11.80;;;10.10;;
27802;SDS011;15182;48.174;11.562;2023-02-28T15:02:18;11.73;;;10.53;;
27802;SDS011;15182;48.174;11.562;2023-02-28T15:04:53;14.17;;;10.47;;
27802;SDS011;15182;48.174;11.562;2023-02-28T15:07:27;16.37;;;10.47;;
27802;SDS011;15182;48.174;11.562;2023-02-28T15:10:14;11.80;;;10.30;;
27802;SDS011;15182;48.174;11.562;2023-02-28T15:12:52;13.70;;;11.00;;
27802;SDS011;15182;48.174;11.562;2023-02-28T15:15:30;14.13;;;10.30;;
27802;SDS011;15182;48.174;11.562;2023-02-28T15:18:15;11.83;;;9.97;;
27802;SDS011;15182;48.174;11.562;2023-02-28T15:20:54;13.00;;;10.93;;
27802;SDS011;15182;48.174;11.562;2023-02-28T15:23:30;11.57;;;10.13;;
27802;SDS011;15182;48.174;11.562;2023-02-28T15:26:03;14.33;;;9.87;;
27802;SDS011;15182;48.174;11.562;2023-02-28T15:28:36;13.37;;;10.10;;
27802;SDS011;15182;48.174;11.562;2023-02-28T15:31:17;11.43;;;9.50;;
27802;SDS011;15182;48.174;11.562;2023-02-28T15:33:54;11.70;;;10.13;;
27802;SDS011;15182;48.174;11.562;2023-02-28T15:36:31;13.53;;;10.80;;